Time;durP1;ratioP1;P1;durP2;ratioP2;P2;SDS_P1;SDS_P2;PMS_P1;PMS_P2;Temp;Humidity;BMP_temperature;BMP_pressure;BME280_temperature;BME280_humidity;BME280_pressure;Samples;Min_cycle;Max_cycle;Signal;HPM_P1;HPM_P2
2021/10/21 00:02:13;;;;;;;5.55;2.55;;;;;;;17.14;66.71;97420.28;5017330;28;20053;-79
2021/10/21 00:04:43;;;;;;;6.07;2.45;;;;;;;17.12;66.85;97416.97;5016854;28;20064;-79
2021/10/21 00:07:10;;;;;;;4.63;2.22;;;;;;;17.14;66.27;97411.47;5017009;28;20061;-79
2021/10/21 00:09:37;;;;;;;3.75;2.15;;;;;;;17.12;66.41;97385.09;5017450;28;20061;-79
2021/10/21 00:12:04;;;;;;;8.18;2.55;;;;;;;17.12;66.16;97377.13;5016981;28;20411;-79
2021/10/21 00:14:31;;;;;;;6.72;2.15;;;;;;;17.11;66.29;97364.84;5016732;28;20046;-79
2021/10/21 00:17:01;;;;;;;4.47;2.55;;;;;;;17.08;66.36;97353.78;5017139;28;20057;-79
2021/10/21 00:19:28;;;;;;;3.28;2.28;;;;;;;17.07;66.15;97339.66;5016290;28;20061;-79
2021/10/21 00:21:58;;;;;;;5.82;3.05;;;;;;;17.05;66.52;97325.75;5034616;28;20415;-79
2021/10/21 00:24:25;;;;;;;4.07;2.38;;;;;;;17.04;66.13;97308.97;5016946;28;20049;-79
2021/10/21 00:26:54;;;;;;;8.05;3.13;;;;;;;17.01;66.34;97296.00;5034095;28;20072;-79
2021/10/21 00:29:21;;;;;;;6.07;3.10;;;;;;;17.02;66.03;97289.72;5033653;28;20055;-79
2021/10/21 00:31:49;;;;;;;4.13;3.10;;;;;;;17.00;66.52;97277.59;5034755;28;20060;-79
2021/10/21 00:34:17;;;;;;;7.55;3.17;;;;;;;17.00;66.41;97272.28;5016308;28;20049;-79
2021/10/21 00:36:48;;;;;;;6.88;3.22;;;;;;;16.97;66.86;97262.84;5016772;28;20051;-79
2021/10/21 00:39:15;;;;;;;6.05;3.10;;;;;;;16.99;66.52;97260.84;5016828;28;20053;-79
2021/10/21 00:41:41;;;;;;;4.38;2.92;;;;;;;16.99;66.63;97250.22;5016585;28;20050;-79
2021/10/21 00:44:12;;;;;;;5.03;3.30;;;;;;;16.99;66.78;97249.38;5016396;28;20046;-79
2021/10/21 00:46:40;;;;;;;8.23;3.53;;;;;;;17.02;66.76;97238.38;5017058;28;20420;-79
2021/10/21 00:49:08;;;;;;;6.72;3.42;;;;;;;17.02;67.01;97230.41;5016575;28;20049;-79
2021/10/21 00:51:37;;;;;;;5.43;3.45;;;;;;;17.04;66.99;97207.97;5016459;28;20072;-79
2021/10/21 00:54:05;;;;;;;5.10;3.33;;;;;;;17.06;66.82;97197.16;5016557;28;20049;-79
2021/10/21 00:56:35;;;;;;;6.68;3.45;;;;;;;17.08;67.11;97189.78;5016431;28;20058;-79
2021/10/21 00:59:04;;;;;;;7.22;3.30;;;;;;;17.10;66.85;97179.81;5016352;28;20049;-79
2021/10/21 01:01:35;;;;;;;4.78;3.00;;;;;;;17.12;66.93;97188.41;5016815;28;20140;-79
2021/10/21 01:04:03;;;;;;;4.80;3.17;;;;;;;17.18;66.79;97168.19;5015898;28;20042;-79
2021/10/21 01:06:32;;;;;;;4.85;3.25;;;;;;;17.18;66.71;97162.88;5033326;28;20053;-79
2021/10/21 01:09:03;;;;;;;5.28;2.88;;;;;;;17.21;66.74;97156.34;5015976;28;20068;-79
2021/10/21 01:11:30;;;;;;;7.03;3.20;;;;;;;17.25;66.70;97144.31;5015876;28;20050;-79
2021/10/21 01:14:01;;;;;;;5.50;3.08;;;;;;;17.26;66.62;97136.16;5016028;28;20053;-79
2021/10/21 01:16:29;;;;;;;4.78;3.10;;;;;;;17.30;66.55;97137.41;5015939;28;20049;-79
2021/10/21 01:18:56;;;;;;;6.78;3.22;;;;;;;17.32;66.27;97115.94;5016315;28;20369;-79
2021/10/21 01:21:24;;;;;;;6.32;3.30;;;;;;;17.34;66.46;97097.13;5016434;28;20472;-79
2021/10/21 01:23:51;;;;;;;4.15;2.97;;;;;;;17.36;66.34;97090.59;5015851;28;20057;-79
2021/10/21 01:26:19;;;;;;;4.78;2.97;;;;;;;17.36;66.48;97095.91;5015775;28;20049;-79
2021/10/21 01:28:46;;;;;;;5.55;2.92;;;;;;;17.38;66.47;97083.22;5015819;28;20057;-79
2021/10/21 01:31:13;;;;;;;4.35;3.08;;;;;;;17.38;66.35;97093.06;5015907;28;20058;-79
2021/10/21 01:33:40;;;;;;;5.90;3.10;;;;;;;17.37;66.43;97078.09;5015783;28;20123;-79
2021/10/21 01:36:12;;;;;;;6.60;3.28;;;;;;;17.34;66.73;97059.91;5033165;28;20061;-79
2021/10/21 01:38:42;;;;;;;5.00;3.10;;;;;;;17.34;66.67;97028.81;5016008;28;20076;-79
2021/10/21 01:41:12;;;;;;;4.75;2.80;;;;;;;17.34;66.48;97025.34;5015310;28;20149;-79
2021/10/21 01:43:43;;;;;;;6.45;3.00;;;;;;;17.30;67.03;96991.19;5015204;28;20403;-79
2021/10/21 01:46:15;;;;;;;4.05;2.85;;;;;;;17.26;67.19;97013.88;5015342;28;20053;-79
2021/10/21 01:48:42;;;;;;;4.70;2.70;;;;;;;17.26;66.69;97005.06;5017653;28;20507;-79
2021/10/21 01:51:10;;;;;;;7.38;3.50;;;;;;;17.22;66.97;97001.16;5019463;28;20061;-79
2021/10/21 01:53:37;;;;;;;7.30;2.70;;;;;;;17.19;66.94;96994.41;5019106;28;20049;-79
2021/10/21 01:56:03;;;;;;;4.75;2.80;;;;;;;17.16;67.17;96989.50;5019779;28;20056;-79
2021/10/21 01:58:33;;;;;;;4.28;2.67;;;;;;;17.13;67.74;96955.34;5019697;28;20403;-79
2021/10/21 02:01:00;;;;;;;4.55;3.03;;;;;;;17.10;67.36;96948.59;5019619;28;20080;-79
2021/10/21 02:03:31;;;;;;;3.13;2.70;;;;;;;17.07;67.67;96922.41;5019838;28;20480;-79
2021/10/21 02:05:58;;;;;;;3.70;2.50;;;;;;;17.05;67.50;96927.09;5019524;28;20061;-79
2021/10/21 02:08:24;;;;;;;5.85;2.47;;;;;;;17.03;67.55;96898.03;5019333;28;20045;-79
2021/10/21 02:10:52;;;;;;;5.15;2.70;;;;;;;17.01;67.87;96881.47;5019536;28;20057;-79
2021/10/21 02:13:18;;;;;;;3.90;2.30;;;;;;;17.01;68.01;96908.03;5019110;28;20057;-80
2021/10/21 02:15:45;;;;;;;7.13;2.72;;;;;;;17.00;67.89;96903.75;5018913;28;20049;-79
2021/10/21 02:18:28;;;;;;;3.47;2.63;;;;;;;16.95;68.79;96903.53;5019085;28;20049;-80
2021/10/21 02:20:55;;;;;;;3.42;1.95;;;;;;;16.99;68.01;96888.84;5019381;28;20060;-79
2021/10/21 02:23:24;;;;;;;3.90;2.33;;;;;;;16.94;67.79;96865.50;5018849;28;20061;-79
2021/10/21 02:25:51;;;;;;;4.25;2.33;;;;;;;16.97;67.69;96872.25;5036254;28;20053;-79
2021/10/21 02:28:19;;;;;;;2.80;1.98;;;;;;;16.93;67.72;96868.34;5019115;28;20380;-79
2021/10/21 02:30:46;;;;;;;3.13;2.17;;;;;;;16.94;67.55;96843.44;5018805;28;20045;-79
2021/10/21 02:33:13;;;;;;;3.65;2.20;;;;;;;16.94;66.90;96854.06;5019049;28;20053;-79
2021/10/21 02:35:43;;;;;;;4.03;1.80;;;;;;;16.92;67.03;96846.31;5018467;28;20046;-79
2021/10/21 02:38:11;;;;;;;7.10;2.13;;;;;;;16.88;65.84;96854.84;5019102;28;20522;-79
2021/10/21 02:40:41;;;;;;;2.65;1.90;;;;;;;16.87;65.51;96874.47;5018681;28;20494;-79
2021/10/21 02:43:08;;;;;;;7.35;2.00;;;;;;;16.80;65.02;96869.97;5036004;28;20049;-79
2021/10/21 02:45:38;;;;;;;5.65;1.70;;;;;;;16.84;64.83;96878.34;5017905;28;20480;-79
2021/10/21 02:48:05;;;;;;;2.97;1.63;;;;;;;16.86;64.75;96880.81;5017912;28;20049;-79
2021/10/21 02:50:35;;;;;;;4.30;1.73;;;;;;;16.85;64.63;96857.94;5018105;28;20068;-79
2021/10/21 02:53:02;;;;;;;5.63;1.83;;;;;;;16.86;64.97;96871.00;5035270;28;20053;-79
2021/10/21 02:55:28;;;;;;;2.65;1.63;;;;;;;16.85;64.61;96871.22;5035395;28;20543;-79
2021/10/21 02:57:56;;;;;;;3.17;1.65;;;;;;;16.83;64.10;96884.69;5017380;28;20049;-80
2021/10/21 03:00:23;;;;;;;2.42;1.75;;;;;;;16.82;64.10;96903.50;5035188;28;20057;-79
2021/10/21 03:02:52;;;;;;;2.78;1.55;;;;;;;16.76;63.02;96895.28;5018651;28;20061;-79
2021/10/21 03:05:19;;;;;;;2.00;1.38;;;;;;;16.75;62.99;96898.94;5018055;28;20111;-79
2021/10/21 03:07:45;;;;;;;2.22;1.48;;;;;;;16.71;62.08;96907.53;5018182;28;20063;-79
2021/10/21 03:10:12;;;;;;;2.53;1.15;;;;;;;16.67;61.13;96899.13;5018282;28;20053;-79
2021/10/21 03:12:39;;;;;;;3.60;1.17;;;;;;;16.60;59.95;96906.25;5018364;28;20060;-79
2021/10/21 03:15:25;;;;;;;5.53;1.20;;;;;;;16.56;59.48;96910.31;5017637;28;20121;-79
2021/10/21 03:17:52;;;;;;;3.03;1.00;;;;;;;16.54;59.37;96913.16;5018218;28;20504;-79
2021/10/21 03:20:25;;;;;;;3.58;1.00;;;;;;;16.44;55.64;96907.41;5017829;28;20060;-79
2021/10/21 03:22:51;;;;;;;4.80;1.05;;;;;;;16.45;57.10;96917.00;5018125;28;20487;-79
2021/10/21 03:25:19;;;;;;;2.30;0.90;;;;;;;16.39;56.69;96935.34;5017968;28;20053;-79
2021/10/21 03:27:46;;;;;;;8.02;1.08;;;;;;;16.36;56.88;96916.31;5018093;28;20156;-79
2021/10/21 03:30:13;;;;;;;2.78;0.82;;;;;;;16.34;57.35;96937.75;5035519;28;20064;-79
2021/10/21 03:32:48;;;;;;;2.65;0.73;;;;;;;16.26;55.91;96912.19;5017955;28;20507;-79
2021/10/21 03:35:14;;;;;;;1.20;0.50;;;;;;;16.27;57.25;96913.81;5017906;28;20489;-79
2021/10/21 03:37:41;;;;;;;3.10;0.95;;;;;;;16.23;56.02;96923.19;5017542;28;20068;-79
2021/10/21 03:40:11;;;;;;;4.15;1.02;;;;;;;16.19;56.17;96943.19;5017601;28;20054;-79
2021/10/21 03:42:39;;;;;;;1.65;0.73;;;;;;;16.18;56.97;96936.22;5017027;28;20060;-79
2021/10/21 03:45:07;;;;;;;4.28;0.95;;;;;;;16.15;57.15;96936.63;5016832;28;20472;-79
2021/10/21 03:47:41;;;;;;;3.47;0.70;;;;;;;16.08;54.85;96927.78;5017061;28;20057;-79
2021/10/21 03:50:08;;;;;;;3.78;1.08;;;;;;;16.09;57.18;96940.03;5016831;28;20049;-79
2021/10/21 03:52:36;;;;;;;3.17;0.70;;;;;;;16.06;57.42;96927.16;5016925;28;20053;-79
2021/10/21 03:55:03;;;;;;;4.63;0.82;;;;;;;16.03;57.57;96938.97;5016739;28;20053;-79
2021/10/21 03:57:29;;;;;;;4.82;0.77;;;;;;;15.98;58.08;96941.38;5016714;28;20054;-79
2021/10/21 03:59:57;;;;;;;5.80;0.90;;;;;;;15.89;58.17;96936.19;5016958;28;20510;-79
2021/10/21 04:02:24;;;;;;;4.07;0.85;;;;;;;15.77;58.46;96935.06;5017129;28;20057;-79
2021/10/21 04:04:51;;;;;;;6.65;0.95;;;;;;;15.62;58.77;96940.44;5017411;28;20119;-79
2021/10/21 04:07:19;;;;;;;2.88;1.10;;;;;;;15.42;59.32;96929.63;5017317;28;20049;-79
2021/10/21 04:09:46;;;;;;;4.13;0.85;;;;;;;15.29;59.68;96920.53;5016776;28;20056;-79
2021/10/21 04:12:16;;;;;;;3.03;0.90;;;;;;;15.10;60.45;96919.31;5016892;28;20059;-79
2021/10/21 04:14:43;;;;;;;5.78;1.30;;;;;;;14.95;60.72;96920.19;5016600;28;20045;-79
2021/10/21 04:17:11;;;;;;;7.22;1.48;;;;;;;14.81;61.14;96926.34;5017266;28;20053;-79
2021/10/21 04:19:37;;;;;;;2.95;0.80;;;;;;;14.68;61.57;96916.34;5016751;28;20060;-79
2021/10/21 04:22:04;;;;;;;3.80;0.95;;;;;;;14.56;61.95;96916.00;5034790;28;20060;-79
2021/10/21 04:24:34;;;;;;;2.90;0.77;;;;;;;14.43;62.93;96904.22;5016663;28;20053;-79
2021/10/21 04:27:01;;;;;;;4.35;0.93;;;;;;;14.37;62.93;96901.50;5017276;28;20061;-79
2021/10/21 04:29:28;;;;;;;2.50;1.13;;;;;;;14.30;62.93;96893.47;5017115;28;20061;-79
2021/10/21 04:31:55;;;;;;;1.80;0.80;;;;;;;14.23;63.69;96892.56;5016874;28;20408;-79
2021/10/21 04:34:22;;;;;;;1.77;0.80;;;;;;;14.17;63.81;96891.47;5016383;28;20049;-79
2021/10/21 04:36:54;;;;;;;1.45;0.82;;;;;;;14.10;65.08;96893.19;5016323;28;20053;-83
2021/10/21 04:39:21;;;;;;;2.92;1.13;;;;;;;14.05;64.50;96886.63;5016490;28;20058;-84
2021/10/21 04:42:05;;;;;;;2.22;0.80;;;;;;;13.98;65.89;96890.19;5016127;28;20099;-83
2021/10/21 04:44:31;;;;;;;2.50;0.88;;;;;;;13.97;65.13;96894.63;5015630;28;20060;-84
2021/10/21 04:47:00;;;;;;;1.77;0.60;;;;;;;13.91;65.60;96890.88;5016008;28;20061;-83
2021/10/21 04:49:27;;;;;;;3.08;1.27;;;;;;;13.88;65.73;96896.56;5015938;28;20057;-83
2021/10/21 04:52:00;;;;;;;2.63;0.80;;;;;;;13.82;66.88;96897.25;5033202;28;20072;-84
2021/10/21 04:54:27;;;;;;;3.10;0.70;;;;;;;13.81;65.83;96883.22;5015602;28;20050;-83
2021/10/21 04:56:58;;;;;;;2.28;0.70;;;;;;;13.76;67.01;96896.13;5015576;28;20075;-83
2021/10/21 04:59:25;;;;;;;3.30;0.75;;;;;;;13.74;66.41;96884.09;5033688;28;20058;-83
2021/10/21 05:01:51;;;;;;;1.38;0.70;;;;;;;13.71;66.58;96884.47;5016179;28;20049;-83
2021/10/21 05:04:30;;;;;;;3.10;0.77;;;;;;;13.63;68.43;96885.34;5033697;28;20404;-84
2021/10/21 05:06:57;;;;;;;3.42;0.80;;;;;;;13.64;66.81;96879.09;5016354;28;20049;-83
2021/10/21 05:09:24;;;;;;;3.67;0.88;;;;;;;13.61;66.92;96896.09;5015985;28;20053;-83
2021/10/21 05:11:51;;;;;;;1.70;0.57;;;;;;;13.58;67.23;96867.41;5015894;28;20049;-83
2021/10/21 05:14:18;;;;;;;1.95;0.77;;;;;;;13.58;67.29;96885.06;5015586;28;20046;-79
2021/10/21 05:16:48;;;;;;;2.28;0.80;;;;;;;13.54;67.74;96879.34;5015825;28;20072;-79
2021/10/21 05:19:15;;;;;;;1.83;0.52;;;;;;;13.54;67.22;96879.34;5016121;28;20089;-79
2021/10/21 05:21:42;;;;;;;5.50;1.00;;;;;;;13.54;67.58;96881.97;5015219;28;20057;-83
2021/10/21 05:24:09;;;;;;;2.15;0.70;;;;;;;13.54;67.39;96880.13;5015305;28;20068;-84
2021/10/21 05:26:42;;;;;;;2.42;0.88;;;;;;;13.52;68.49;96881.31;5015968;28;20049;-84
2021/10/21 05:29:09;;;;;;;6.10;1.05;;;;;;;13.55;67.66;96867.75;5015865;28;20061;-83
2021/10/21 05:31:40;;;;;;;4.88;0.80;;;;;;;13.53;67.83;96865.28;5015284;28;20053;-83
2021/10/21 05:34:06;;;;;;;4.35;1.10;;;;;;;13.55;67.49;96876.50;5015325;28;20049;-84
2021/10/21 05:36:33;;;;;;;1.83;0.70;;;;;;;13.55;67.73;96873.03;5015162;28;20042;-84
2021/10/21 05:39:01;;;;;;;1.50;0.55;;;;;;;13.57;67.66;96875.50;5014657;28;20058;-84
2021/10/21 05:41:28;;;;;;;3.47;0.80;;;;;;;13.58;67.52;96877.16;5014708;28;20053;-83
2021/10/21 05:43:55;;;;;;;2.33;0.70;;;;;;;13.59;67.43;96878.78;5032663;28;20050;-84
2021/10/21 05:46:26;;;;;;;2.40;0.68;;;;;;;13.59;67.97;96882.25;5016061;28;20404;-84
2021/10/21 05:48:58;;;;;;;3.05;0.75;;;;;;;13.64;67.57;96879.09;5016473;28;20054;-83
2021/10/21 05:51:28;;;;;;;5.40;1.00;;;;;;;13.65;67.93;96897.38;5015648;28;20061;-84
2021/10/21 05:53:55;;;;;;;2.35;0.82;;;;;;;13.68;67.44;96896.22;5015468;28;20515;-85
2021/10/21 05:56:25;;;;;;;2.65;0.80;;;;;;;13.70;67.83;96903.97;5015747;28;20046;-85
2021/10/21 05:58:51;;;;;;;4.55;0.75;;;;;;;13.72;67.58;96917.84;5015471;28;20068;-85
2021/10/21 06:01:18;;;;;;;2.15;0.73;;;;;;;13.74;67.53;96921.13;5015697;28;20053;-85
2021/10/21 06:03:45;;;;;;;1.63;0.70;;;;;;;13.75;67.59;96928.06;5015233;28;20092;-85
2021/10/21 06:06:12;;;;;;;3.78;0.82;;;;;;;13.75;67.58;96928.88;5015296;28;20050;-85
2021/10/21 06:08:44;;;;;;;2.47;0.70;;;;;;;13.75;67.92;96928.88;5015520;28;20056;-85
2021/10/21 06:11:13;;;;;;;2.08;0.82;;;;;;;13.75;67.46;96928.06;5015840;28;20548;-84
2021/10/21 06:13:40;;;;;;;4.35;0.80;;;;;;;13.73;67.48;96930.06;5015166;28;20053;-84
2021/10/21 06:16:08;;;;;;;2.00;0.60;;;;;;;13.70;67.78;96933.03;5015213;28;20046;-85
2021/10/21 06:18:35;;;;;;;3.90;0.88;;;;;;;13.68;67.70;96943.78;5015249;28;20061;-84
2021/10/21 06:21:06;;;;;;;3.97;0.88;;;;;;;13.65;67.73;96947.59;5015568;28;20053;-84
2021/10/21 06:23:53;;;;;;;2.55;0.80;;;;;;;13.60;68.93;96947.31;5015401;28;20487;-85
2021/10/21 06:26:20;;;;;;;4.80;0.90;;;;;;;13.63;67.92;96946.16;5015457;28;20049;-85
2021/10/21 06:28:50;;;;;;;1.30;0.65;;;;;;;13.62;67.97;96955.06;5015181;28;20049;-85
2021/10/21 06:31:22;;;;;;;1.77;1.00;;;;;;;13.61;68.58;96961.38;5015293;28;20053;-85
2021/10/21 06:33:49;;;;;;;1.17;0.50;;;;;;;13.62;68.00;96966.47;5015566;28;20086;-85
2021/10/21 06:36:21;;;;;;;4.30;1.00;;;;;;;13.63;68.36;96975.22;5018627;28;20049;-81
2021/10/21 06:38:48;;;;;;;2.58;0.60;;;;;;;13.65;67.99;96989.09;5018738;28;20050;-81
2021/10/21 06:41:17;;;;;;;0.80;0.60;;;;;;;13.66;68.16;96993.38;5018850;28;20049;-82
2021/10/21 06:43:44;;;;;;;3.50;1.00;;;;;;;13.67;68.09;96987.91;5018508;28;20068;-81
2021/10/21 06:46:17;;;;;;;3.35;0.90;;;;;;;13.67;68.78;97059.28;5018439;28;20050;-82
2021/10/21 06:48:44;;;;;;;3.13;0.95;;;;;;;13.71;67.46;97172.63;5018455;28;20049;-82
2021/10/21 06:51:22;;;;;;;3.03;0.47;;;;;;;13.59;64.10;97148.34;5018637;28;20045;-82
2021/10/21 06:53:48;;;;;;;1.08;0.40;;;;;;;13.47;63.40;97158.47;5018141;28;20059;-82
2021/10/21 06:56:15;;;;;;;0.85;0.40;;;;;;;13.24;63.37;97175.03;5035871;28;20451;-82
2021/10/21 06:58:52;;;;;;;0.75;0.30;;;;;;;12.95;64.28;97182.50;5018501;28;20418;-82
2021/10/21 07:01:18;;;;;;;3.00;0.38;;;;;;;12.77;64.40;97203.81;5018014;28;20415;-82
2021/10/21 07:03:49;;;;;;;1.38;0.22;;;;;;;12.54;65.45;97201.81;5017820;28;20054;-82
2021/10/21 07:06:16;;;;;;;0.60;0.40;;;;;;;12.40;65.64;97223.56;5017811;28;20061;-82
2021/10/21 07:08:46;;;;;;;1.20;0.30;;;;;;;12.24;66.06;97233.94;5018590;28;20400;-82
2021/10/21 07:11:13;;;;;;;0.20;0.17;;;;;;;12.17;66.50;97245.25;5018116;28;20053;-81
2021/10/21 07:13:40;;;;;;;0.65;0.28;;;;;;;12.08;66.72;97260.25;5017848;28;20058;-81
2021/10/21 07:16:07;;;;;;;2.65;0.32;;;;;;;12.02;67.12;97280.13;5018307;28;20079;-81
2021/10/21 07:18:34;;;;;;;1.58;0.38;;;;;;;11.99;67.57;97293.59;5018280;28;20053;-82
2021/10/21 07:21:01;;;;;;;0.40;0.32;;;;;;;11.96;67.79;97315.03;5017978;28;20045;-81
2021/10/21 07:23:39;;;;;;;1.45;0.20;;;;;;;11.92;68.76;97330.31;5018126;28;20550;-81
2021/10/21 07:26:06;;;;;;;2.03;0.40;;;;;;;11.95;68.18;97340.56;5018058;28;20050;-81
2021/10/21 07:28:36;;;;;;;1.35;0.40;;;;;;;11.96;68.71;97365.94;5018116;28;20064;-81
2021/10/21 07:31:03;;;;;;;0.52;0.30;;;;;;;12.01;68.20;97380.47;5017946;28;20060;-81
2021/10/21 07:33:30;;;;;;;2.08;0.28;;;;;;;12.01;68.43;97398.91;5017596;28;20053;-81
2021/10/21 07:36:05;;;;;;;0.30;0.30;;;;;;;12.01;69.27;97412.09;5017609;28;20050;-81
2021/10/21 07:38:32;;;;;;;1.85;0.30;;;;;;;12.06;68.63;97428.31;5017867;28;20484;-81
2021/10/21 07:40:59;;;;;;;0.35;0.30;;;;;;;12.09;68.44;97449.09;5017583;28;20057;-81
2021/10/21 07:43:29;;;;;;;4.18;0.47;;;;;;;12.11;69.08;97460.31;5018044;28;20053;-81
2021/10/21 07:46:04;;;;;;;0.85;0.30;;;;;;;12.12;69.18;97473.34;5017490;28;20045;-81
2021/10/21 07:48:31;;;;;;;1.80;0.60;;;;;;;12.17;68.64;97498.44;5035373;28;20061;-81
2021/10/21 07:50:58;;;;;;;0.98;0.50;;;;;;;12.17;68.53;97514.25;5017602;28;20060;-81
2021/10/21 07:53:28;;;;;;;0.75;0.30;;;;;;;12.15;68.83;97509.13;5017653;28;20478;-81
2021/10/21 07:55:56;;;;;;;3.13;0.65;;;;;;;12.16;68.74;97541.63;5017495;28;20056;-81
2021/10/21 07:58:23;;;;;;;1.20;0.32;;;;;;;12.15;68.75;97555.78;5017266;28;20063;-81
2021/10/21 08:00:51;;;;;;;2.05;0.60;;;;;;;12.12;68.96;97573.56;5017153;28;20045;-81
2021/10/21 08:03:19;;;;;;;1.38;0.50;;;;;;;12.12;69.01;97597.28;5017423;28;20550;-81
2021/10/21 08:05:46;;;;;;;1.25;0.40;;;;;;;12.13;69.15;97595.50;5034392;28;20052;-82
2021/10/21 08:08:13;;;;;;;1.10;0.40;;;;;;;12.12;69.19;97621.03;5017289;28;20049;-81
2021/10/21 08:10:40;;;;;;;2.33;0.55;;;;;;;12.14;69.33;97627.97;5017170;28;20423;-81
2021/10/21 08:13:10;;;;;;;0.95;0.57;;;;;;;12.13;69.60;97645.59;5016379;28;20057;-81
2021/10/21 08:15:40;;;;;;;;;;;;;;;12.15;70.39;97656.81;5017452;28;20053;-82
2021/10/21 08:18:13;;;;;;;4.00;0.70;;;;;;;12.19;69.48;97667.91;5016527;28;19924;-81
2021/10/21 08:20:44;;;;;;;1.35;0.63;;;;;;;12.20;69.75;97688.03;5016855;28;20057;-82
2021/10/21 08:23:11;;;;;;;2.97;0.55;;;;;;;12.22;69.41;97693.97;5016802;28;20053;-81
2021/10/21 08:25:40;;;;;;;3.63;0.60;;;;;;;12.22;69.84;97704.53;5016315;28;20052;-82
2021/10/21 08:28:08;;;;;;;2.00;0.57;;;;;;;12.24;69.83;97713.13;5017009;28;20053;-82
2021/10/21 08:30:38;;;;;;;3.30;0.80;;;;;;;12.27;69.85;97717.28;5000471;28;20057;-81
2021/10/21 08:33:19;;;;;;;3.35;0.70;;;;;;;12.26;70.77;97719.06;5016889;28;20488;-82
2021/10/21 08:35:46;;;;;;;3.55;0.65;;;;;;;12.32;70.04;97736.97;5016317;28;20057;-82
2021/10/21 08:38:12;;;;;;;3.08;0.73;;;;;;;12.37;70.00;97744.41;5016592;28;20064;-82
2021/10/21 08:40:41;;;;;;;0.80;0.50;;;;;;;12.41;70.10;97755.53;5016493;28;20144;-82
2021/10/21 08:43:08;;;;;;;4.93;0.95;;;;;;;12.45;70.00;97770.88;5016779;28;20057;-81
2021/10/21 08:45:38;;;;;;;3.83;1.05;;;;;;;12.46;70.45;97785.75;5016264;28;20065;-82
2021/10/21 08:48:08;;;;;;;4.78;1.45;;;;;;;12.50;70.76;97783.66;5016520;28;20140;-82
2021/10/21 08:50:38;;;;;;;6.53;0.82;;;;;;;12.56;70.11;97817.34;5016307;28;20064;-82
2021/10/21 08:53:06;;;;;;;9.07;1.25;;;;;;;12.59;69.89;97824.97;5016556;28;20057;-81
2021/10/21 08:56:00;;;;;;;5.47;1.20;;;;;;;12.60;70.50;97833.75;5015896;28;20061;-82
2021/10/21 08:58:27;;;;;;;4.65;1.15;;;;;;;12.70;70.10;97836.28;5015954;28;20058;-82
2021/10/21 09:00:59;;;;;;;8.10;1.27;;;;;;;12.74;70.32;97840.28;5016509;28;20389;-82
2021/10/21 09:09:05;;;;;;;4.93;1.08;;;;;;;12.92;69.89;97868.53;5033786;28;20057;-82
2021/10/21 09:11:31;;;;;;;6.60;1.20;;;;;;;13.01;69.70;97879.03;5016072;28;20050;-81
2021/10/21 09:14:09;;;;;;;5.22;1.00;;;;;;;13.05;70.01;97884.88;5016117;28;20057;-82
2021/10/21 09:17:01;;;;;;;4.90;1.40;;;;;;;13.12;69.32;97896.47;5016193;28;20446;-82
2021/10/21 09:19:28;;;;;;;6.68;1.05;;;;;;;13.22;69.15;97914.91;5016257;28;20076;-82
2021/10/21 09:22:06;;;;;;;5.22;1.23;;;;;;;13.26;69.02;97921.56;5013726;28;20136;-82
2021/10/21 09:24:39;;;;;;;5.38;1.15;;;;;;;13.31;68.77;97939.59;5016096;28;20634;-82
2021/10/21 09:27:09;;;;;;;6.57;1.48;;;;;;;13.37;68.55;97940.78;5012570;28;20799;-82
2021/10/21 09:29:56;;;;;;;4.13;1.02;;;;;;;13.38;67.90;97961.78;5016017;28;20060;-82
2021/10/21 09:32:32;;;;;;;8.50;1.60;;;;;;;13.41;68.15;97953.56;5015740;28;20060;-82
2021/10/21 09:35:09;;;;;;;6.78;1.52;;;;;;;13.48;68.27;97963.56;5015565;28;20057;-82
2021/10/21 09:37:42;;;;;;;7.07;1.60;;;;;;;13.52;67.99;97972.84;5015601;28;20057;-82
2021/10/21 09:40:15;;;;;;;8.45;1.83;;;;;;;13.54;67.28;97968.25;5015748;28;20045;-82
2021/10/21 09:43:26;;;;;;;8.95;1.38;;;;;;;13.55;67.48;98002.47;5015690;28;20057;-82
2021/10/21 09:49:37;;;;;;;5.55;1.23;;;;;;;13.62;66.71;98008.00;4972256;28;20090;-82
2021/10/21 09:52:14;;;;;;;8.27;1.98;;;;;;;13.54;66.38;98024.56;4956464;28;20063;-82
2021/10/21 09:54:52;;;;;;;7.60;1.55;;;;;;;13.50;66.52;98017.94;4965790;28;20476;-82
2021/10/21 09:57:29;;;;;;;8.07;1.38;;;;;;;13.46;66.21;98045.59;5016944;28;20045;-82
2021/10/21 10:00:08;;;;;;;3.85;1.23;;;;;;;13.38;66.35;98048.19;5015790;28;20053;-82
2021/10/21 10:02:35;;;;;;;6.70;1.52;;;;;;;13.37;66.24;98047.34;5015742;28;20057;-82
2021/10/21 10:05:04;;;;;;;6.25;1.75;;;;;;;13.34;66.37;98047.63;5015998;28;20061;-82
2021/10/21 10:07:35;;;;;;;12.45;2.05;;;;;;;13.30;66.09;98067.41;5015506;28;20098;-82
2021/10/21 10:10:05;;;;;;;10.80;1.33;;;;;;;13.30;65.94;98046.25;5018873;28;20495;-81
2021/10/21 10:12:32;;;;;;;6.78;1.70;;;;;;;13.32;66.19;98070.75;5019479;28;20124;-81
2021/10/21 10:15:08;;;;;;;4.40;1.30;;;;;;;13.31;65.60;98077.00;5018930;28;20053;-81
2021/10/21 10:17:34;;;;;;;5.50;1.60;;;;;;;13.34;65.96;98060.84;5019264;28;20499;-82
2021/10/21 10:20:31;;;;;;;4.88;1.70;;;;;;;13.35;65.75;98094.22;5019542;28;20439;-82
2021/10/21 10:23:01;;;;;;;6.53;1.35;;;;;;;13.47;66.77;98094.03;5036565;28;20060;-82
2021/10/21 10:25:27;;;;;;;3.90;1.50;;;;;;;13.53;65.80;98104.06;5019040;28;20076;-82
2021/10/21 10:28:06;;;;;;;6.93;1.50;;;;;;;13.57;64.60;98100.13;5018861;28;20068;-81
2021/10/21 10:30:53;;;;;;;7.18;1.20;;;;;;;13.67;65.00;98097.41;5019109;28;20092;-82
2021/10/21 10:33:38;;;;;;;6.93;1.52;;;;;;;13.80;65.22;98105.00;5019007;28;20045;-87
2021/10/21 10:36:29;;;;;;;5.70;1.27;;;;;;;13.92;65.16;98132.91;5018591;28;20056;-82
2021/10/21 10:39:03;;;;;;;12.02;1.90;;;;;;;14.07;64.16;98130.56;5019286;28;20408;-82
2021/10/21 10:41:43;;;;;;;6.30;1.83;;;;;;;14.18;64.71;98103.06;4940332;29;20047;-82
2021/10/21 10:44:48;;;;;;;8.85;1.33;;;;;;;14.31;64.44;98118.53;4956049;29;20058;-82
2021/10/21 10:47:15;;;;;;;5.88;1.40;;;;;;;14.50;64.95;98127.28;4956308;29;20055;-82
2021/10/21 10:49:43;;;;;;;7.82;1.38;;;;;;;14.63;64.23;98137.50;4956075;29;20055;-82
2021/10/21 10:52:56;;;;;;;7.20;1.75;;;;;;;14.78;62.17;98139.63;4955844;29;20540;-82
2021/10/21 10:59:15;;;;;;;4.10;1.48;;;;;;;15.43;61.18;98154.22;4901025;28;20106;-82
2021/10/21 11:01:42;;;;;;;7.18;1.83;;;;;;;15.69;61.36;98174.56;5018286;28;20057;-82
2021/10/21 11:04:09;;;;;;;4.90;1.10;;;;;;;15.79;60.04;98170.94;5018238;28;20057;-82
2021/10/21 11:07:03;;;;;;;5.85;1.10;;;;;;;15.76;55.98;98169.44;5018512;28;20056;-82
2021/10/21 11:09:30;;;;;;;6.38;1.40;;;;;;;15.74;58.60;98166.94;5018211;28;20057;-82
2021/10/21 11:12:11;;;;;;;3.53;1.08;;;;;;;15.59;55.85;98173.88;5035913;28;20506;-82
2021/10/21 11:14:55;;;;;;;4.07;1.10;;;;;;;15.44;57.91;98176.28;5019990;28;20035;-82
2021/10/21 11:17:44;;;;;;;3.92;0.77;;;;;;;15.20;57.79;98189.25;5018295;28;20471;-83
2021/10/21 11:20:26;;;;;;;3.20;0.77;;;;;;;14.98;56.67;98188.78;5018292;28;20045;-82
2021/10/21 11:22:54;;;;;;;7.32;1.40;;;;;;;14.86;58.74;98187.34;5018135;28;20049;-82
2021/10/21 11:25:31;;;;;;;3.35;0.90;;;;;;;14.66;58.29;98195.44;5018098;28;20065;-82
2021/10/21 11:28:00;;;;;;;5.57;0.85;;;;;;;14.52;59.38;98193.34;5018123;28;20418;-82
2021/10/21 11:30:29;;;;;;;4.32;0.82;;;;;;;14.37;59.71;98196.50;5018097;28;20448;-82
2021/10/21 11:33:11;;;;;;;3.03;0.80;;;;;;;14.18;60.34;98190.38;4940725;29;20089;-82
2021/10/21 11:35:39;;;;;;;2.33;0.75;;;;;;;14.02;60.38;98206.09;4938995;29;20496;-82
2021/10/21 11:38:10;;;;;;;3.58;1.05;;;;;;;13.85;60.93;98211.19;4939134;29;20569;-82
2021/10/21 11:41:01;;;;;;;3.80;0.95;;;;;;;13.65;62.07;98199.88;4954975;29;20610;-82
2021/10/21 11:43:42;;;;;;;4.55;1.20;;;;;;;13.53;62.33;98204.50;4954991;29;20080;-82
2021/10/21 11:46:12;;;;;;;5.25;1.00;;;;;;;13.41;62.53;98204.66;4939101;29;20051;-82
2021/10/21 11:48:40;;;;;;;3.78;1.25;;;;;;;13.28;62.94;98209.41;4955055;29;20402;-82
2021/10/21 11:51:13;;;;;;;1.80;0.80;;;;;;;13.15;63.74;98210.56;4974683;28;20057;-82
2021/10/21 11:53:41;;;;;;;2.38;0.65;;;;;;;13.06;63.65;98213.22;5017510;28;20056;-82
2021/10/21 11:56:10;;;;;;;2.70;0.90;;;;;;;12.95;64.28;98216.84;5017274;28;20049;-82
2021/10/21 11:58:38;;;;;;;3.35;1.10;;;;;;;12.88;64.31;98212.13;5017403;28;20050;-82
2021/10/21 12:01:08;;;;;;;5.63;1.05;;;;;;;12.81;64.81;98208.38;5017482;28;20057;-82
2021/10/21 12:03:51;;;;;;;3.53;0.95;;;;;;;12.70;65.85;98217.28;5017330;28;20057;-82